createdAt,value
2018-02-09T00:00:51.076Z,1008.02
2018-02-09T00:01:51.672Z,1008.00
2018-02-09T00:02:52.265Z,1007.99
2018-02-09T00:03:52.863Z,1008.00
2018-02-09T00:04:53.466Z,1007.97
2018-02-09T00:05:54.046Z,1007.95
2018-02-09T00:06:54.641Z,1007.94
2018-02-09T00:07:55.235Z,1007.90
2018-02-09T00:08:55.821Z,1007.92
2018-02-09T00:09:56.415Z,1007.87
2018-02-09T00:10:57.008Z,1007.91
2018-02-09T00:11:57.606Z,1007.91
2018-02-09T00:12:58.202Z,1007.87
2018-02-09T00:13:58.795Z,1007.87
2018-02-09T00:14:59.392Z,1007.85
2018-02-09T00:15:59.986Z,1007.86
2018-02-09T00:17:00.583Z,1007.85
2018-02-09T00:18:01.178Z,1007.86
2018-02-09T00:19:01.799Z,1007.82
2018-02-09T00:20:02.376Z,1007.85
2018-02-09T00:21:03.028Z,1007.85
2018-02-09T00:22:03.573Z,1007.87
2018-02-09T00:23:04.170Z,1007.90
2018-02-09T00:24:04.759Z,1007.87
2018-02-09T00:25:05.347Z,1007.88
2018-02-09T00:26:05.948Z,1007.87
2018-02-09T00:27:06.545Z,1007.86
2018-02-09T00:28:07.141Z,1007.84
2018-02-09T00:29:07.742Z,1007.83
2018-02-09T00:30:08.334Z,1007.83
2018-02-09T00:31:08.932Z,1007.82
2018-02-09T00:32:09.514Z,1007.82
2018-02-09T00:33:10.109Z,1007.82
2018-02-09T00:34:10.710Z,1007.83
2018-02-09T00:35:11.297Z,1007.83
2018-02-09T00:36:11.896Z,1007.77
2018-02-09T00:37:12.490Z,1007.78
2018-02-09T00:38:13.087Z,1007.83
2018-02-09T00:39:13.680Z,1007.81
2018-02-09T00:40:14.279Z,1007.80
2018-02-09T00:41:14.871Z,1007.77
2018-02-09T00:42:15.460Z,1007.74
2018-02-09T00:43:16.056Z,1007.76
2018-02-09T00:44:16.647Z,1007.72
2018-02-09T00:45:17.251Z,1007.70
2018-02-09T00:46:17.854Z,1007.73
2018-02-09T00:47:18.442Z,1007.72
2018-02-09T00:48:19.039Z,1007.72
2018-02-09T00:49:19.640Z,1007.72
2018-02-09T00:50:20.241Z,1007.72
2018-02-09T00:51:20.841Z,1007.68
2018-02-09T00:52:21.439Z,1007.69
2018-02-09T00:53:22.045Z,1007.72
2018-02-09T00:54:22.640Z,1007.73
2018-02-09T00:55:23.239Z,1007.74
2018-02-09T00:56:23.837Z,1007.74
2018-02-09T00:57:24.431Z,1007.74
2018-02-09T00:58:25.023Z,1007.73
2018-02-09T00:59:25.615Z,1007.71
2018-02-09T01:01:10.424Z,1007.72
2018-02-09T01:02:11.023Z,1007.69
2018-02-09T01:03:11.621Z,1007.72
2018-02-09T01:04:12.208Z,1007.71
2018-02-09T01:05:12.810Z,1007.70
2018-02-09T01:06:13.476Z,1007.68
2018-02-09T01:07:14.048Z,1007.70
2018-02-09T01:08:14.645Z,1007.65
2018-02-09T01:09:15.242Z,1007.68
2018-02-09T01:10:15.862Z,1007.64
2018-02-09T01:11:16.445Z,1007.62
2018-02-09T01:12:17.045Z,1007.61
2018-02-09T01:13:17.641Z,1007.63
2018-02-09T01:14:18.234Z,1007.55
2018-02-09T01:15:18.834Z,1007.52
2018-02-09T01:16:19.430Z,1007.53
2018-02-09T01:17:20.030Z,1007.48
2018-02-09T01:18:20.613Z,1007.49
2018-02-09T01:19:21.198Z,1007.46
2018-02-09T01:20:21.793Z,1007.47
2018-02-09T01:21:22.377Z,1007.47
2018-02-09T01:22:22.966Z,1007.50
2018-02-09T01:23:23.566Z,1007.47
2018-02-09T01:24:24.168Z,1007.45
2018-02-09T01:25:24.751Z,1007.47
2018-02-09T01:26:25.339Z,1007.42
2018-02-09T01:27:25.961Z,1007.44
2018-02-09T01:28:26.516Z,1007.43
2018-02-09T01:29:27.107Z,1007.45
2018-02-09T01:30:27.700Z,1007.48
2018-02-09T01:31:28.284Z,1007.48
2018-02-09T01:32:28.885Z,1007.49
2018-02-09T01:33:29.483Z,1007.51
2018-02-09T01:34:30.080Z,1007.50
2018-02-09T01:35:30.672Z,1007.52
2018-02-09T01:36:31.273Z,1007.55
2018-02-09T01:37:31.868Z,1007.54
2018-02-09T01:38:32.453Z,1007.54
2018-02-09T01:39:33.037Z,1007.54
2018-02-09T01:40:33.635Z,1007.53
2018-02-09T01:41:34.219Z,1007.52
2018-02-09T01:42:34.819Z,1007.53
2018-02-09T01:43:35.417Z,1007.55
2018-02-09T01:44:36.013Z,1007.54
2018-02-09T01:45:36.600Z,1007.53
2018-02-09T01:46:37.198Z,1007.51
2018-02-09T01:47:37.793Z,1007.50
2018-02-09T01:48:38.387Z,1007.53
2018-02-09T01:49:38.982Z,1007.51
2018-02-09T01:50:39.579Z,1007.46
2018-02-09T01:51:40.173Z,1007.43
2018-02-09T01:52:40.776Z,1007.44
2018-02-09T01:53:41.374Z,1007.43
2018-02-09T01:54:41.965Z,1007.46
2018-02-09T01:55:42.562Z,1007.44
2018-02-09T01:56:43.156Z,1007.38
2018-02-09T01:57:43.743Z,1007.42
2018-02-09T01:58:44.328Z,1007.38
2018-02-09T01:59:44.923Z,1007.39
2018-02-09T02:00:45.518Z,1007.42
2018-02-09T02:01:46.110Z,1007.40
2018-02-09T02:02:46.704Z,1007.39
2018-02-09T02:03:47.296Z,1007.37
2018-02-09T02:04:47.889Z,1007.38
2018-02-09T02:05:48.484Z,1007.36
2018-02-09T02:06:49.069Z,1007.37
2018-02-09T02:07:49.658Z,1007.38
2018-02-09T02:08:50.251Z,1007.34
2018-02-09T02:09:50.849Z,1007.38
2018-02-09T02:10:51.445Z,1007.34
2018-02-09T02:11:52.040Z,1007.36
2018-02-09T02:12:52.626Z,1007.33
2018-02-09T02:13:53.221Z,1007.35
2018-02-09T02:14:53.816Z,1007.34
2018-02-09T02:15:54.418Z,1007.33
2018-02-09T02:16:55.002Z,1007.28
2018-02-09T02:17:55.596Z,1007.25
2018-02-09T02:18:56.187Z,1007.23
2018-02-09T02:19:56.789Z,1007.24
2018-02-09T02:20:57.378Z,1007.24
2018-02-09T02:21:57.980Z,1007.27
2018-02-09T02:22:58.575Z,1007.21
2018-02-09T02:23:59.174Z,1007.18
2018-02-09T02:24:59.769Z,1007.19
2018-02-09T02:26:00.361Z,1007.15
2018-02-09T02:27:00.947Z,1007.18
2018-02-09T02:28:01.540Z,1007.14
2018-02-09T02:29:02.137Z,1007.15
2018-02-09T02:30:02.736Z,1007.13
2018-02-09T02:31:03.315Z,1007.14
2018-02-09T02:32:03.913Z,1007.10
2018-02-09T02:33:04.503Z,1007.07
2018-02-09T02:34:05.091Z,1006.98
2018-02-09T02:35:05.697Z,1006.97
2018-02-09T02:36:06.280Z,1006.97
2018-02-09T02:37:06.885Z,1006.94
2018-02-09T02:38:07.488Z,1006.90
2018-02-09T02:39:08.078Z,1006.90
2018-02-09T02:40:08.676Z,1006.91
2018-02-09T02:41:09.278Z,1006.90
2018-02-09T02:42:09.881Z,1006.90
2018-02-09T02:43:10.488Z,1006.85
2018-02-09T02:44:11.071Z,1006.84
2018-02-09T02:45:11.662Z,1006.83
2018-02-09T02:46:12.255Z,1006.82
2018-02-09T02:47:12.847Z,1006.83
2018-02-09T02:48:13.447Z,1006.80
2018-02-09T02:49:14.035Z,1006.76
2018-02-09T02:50:14.622Z,1006.78
2018-02-09T02:51:15.222Z,1006.77
2018-02-09T02:52:15.820Z,1006.76
2018-02-09T02:53:16.418Z,1006.76
2018-02-09T02:54:17.012Z,1006.70
2018-02-09T02:55:17.603Z,1006.70
2018-02-09T02:56:18.204Z,1006.71
2018-02-09T02:57:18.802Z,1006.71
2018-02-09T02:58:19.398Z,1006.69
2018-02-09T02:59:19.991Z,1006.69
2018-02-09T03:00:20.585Z,1006.69
2018-02-09T03:01:21.223Z,1006.71
2018-02-09T03:02:21.759Z,1006.71
2018-02-09T03:03:22.357Z,1006.65
2018-02-09T03:04:22.950Z,1006.64
2018-02-09T03:05:23.538Z,1006.64
2018-02-09T03:06:24.130Z,1006.62
2018-02-09T03:07:24.723Z,1006.63
2018-02-09T03:08:25.321Z,1006.65
2018-02-09T03:09:25.917Z,1006.62
2018-02-09T03:10:26.515Z,1006.62
2018-02-09T03:11:27.106Z,1006.61
2018-02-09T03:12:27.697Z,1006.59
2018-02-09T03:13:28.283Z,1006.58
2018-02-09T03:14:28.879Z,1006.57
2018-02-09T03:15:29.480Z,1006.55
2018-02-09T03:16:30.074Z,1006.56
2018-02-09T03:17:30.656Z,1006.50
2018-02-09T03:18:31.249Z,1006.54
2018-02-09T03:19:31.847Z,1006.49
2018-02-09T03:20:32.435Z,1006.54
2018-02-09T03:21:33.030Z,1006.52
2018-02-09T03:22:33.624Z,1006.47
2018-02-09T03:23:34.217Z,1006.47
2018-02-09T03:24:34.816Z,1006.51
2018-02-09T03:25:35.412Z,1006.48
2018-02-09T03:26:36.011Z,1006.43
2018-02-09T03:27:36.593Z,1006.48
2018-02-09T03:28:37.179Z,1006.44
2018-02-09T03:29:37.770Z,1006.41
2018-02-09T03:30:38.367Z,1006.45
2018-02-09T03:31:38.958Z,1006.42
2018-02-09T03:32:39.551Z,1006.41
2018-02-09T03:33:40.150Z,1006.39
2018-02-09T03:34:40.738Z,1006.40
2018-02-09T03:35:41.331Z,1006.40
2018-02-09T03:36:41.929Z,1006.40
2018-02-09T03:37:42.526Z,1006.39
2018-02-09T03:38:43.118Z,1006.40
2018-02-09T03:39:43.760Z,1006.34
2018-02-09T03:40:44.305Z,1006.35
2018-02-09T03:41:44.907Z,1006.33
2018-02-09T03:42:45.505Z,1006.29
2018-02-09T03:43:46.107Z,1006.26
2018-02-09T03:44:46.702Z,1006.30
2018-02-09T03:45:47.288Z,1006.30
2018-02-09T03:46:47.886Z,1006.33
2018-02-09T03:47:48.488Z,1006.27
2018-02-09T03:48:49.074Z,1006.29
2018-02-09T03:49:49.662Z,1006.29
2018-02-09T03:50:50.247Z,1006.27
2018-02-09T03:51:50.836Z,1006.32
2018-02-09T03:52:51.430Z,1006.31
2018-02-09T03:53:52.027Z,1006.29
2018-02-09T03:54:52.611Z,1006.36
2018-02-09T03:55:53.209Z,1006.35
2018-02-09T03:56:53.800Z,1006.33
2018-02-09T03:57:54.386Z,1006.30
2018-02-09T03:58:54.971Z,1006.30
2018-02-09T03:59:55.566Z,1006.24
2018-02-09T04:00:56.166Z,1006.25
2018-02-09T04:01:56.762Z,1006.23
2018-02-09T04:02:57.355Z,1006.25
2018-02-09T04:03:57.936Z,1006.25
2018-02-09T04:04:58.521Z,1006.23
2018-02-09T04:05:59.119Z,1006.20
2018-02-09T04:06:59.712Z,1006.25
2018-02-09T04:08:00.305Z,1006.22
2018-02-09T04:09:00.888Z,1006.20
2018-02-09T04:10:01.483Z,1006.23
2018-02-09T04:11:02.071Z,1006.19
2018-02-09T04:12:02.673Z,1006.19
2018-02-09T04:13:03.274Z,1006.16
2018-02-09T04:14:03.873Z,1006.15
2018-02-09T04:15:04.463Z,1006.16
2018-02-09T04:16:05.063Z,1006.12
2018-02-09T04:17:05.665Z,1006.13
2018-02-09T04:18:06.261Z,1006.08
2018-02-09T04:19:06.851Z,1006.09
2018-02-09T04:20:07.448Z,1006.11
2018-02-09T04:21:08.038Z,1006.07
2018-02-09T04:22:08.625Z,1006.09
2018-02-09T04:23:09.213Z,1006.08
2018-02-09T04:24:09.811Z,1006.08
2018-02-09T04:25:10.452Z,1006.05
2018-02-09T04:26:11.055Z,1006.08
2018-02-09T04:27:11.649Z,1006.11
2018-02-09T04:28:12.253Z,1006.11
2018-02-09T04:29:12.855Z,1006.11
2018-02-09T04:30:13.443Z,1006.12
2018-02-09T04:31:14.032Z,1006.13
2018-02-09T04:32:14.626Z,1006.08
2018-02-09T04:33:15.216Z,1006.05
2018-02-09T04:34:15.808Z,1006.04
2018-02-09T04:35:16.404Z,1006.06
2018-02-09T04:36:17.000Z,1006.03
2018-02-09T04:37:17.604Z,1005.97
2018-02-09T04:38:18.201Z,1005.98
2018-02-09T04:39:18.798Z,1006.00
2018-02-09T04:40:19.393Z,1005.93
2018-02-09T04:41:19.988Z,1006.00
2018-02-09T04:42:20.588Z,1005.97
2018-02-09T04:43:21.167Z,1005.96
2018-02-09T04:44:21.761Z,1005.92
2018-02-09T04:45:22.347Z,1005.92
2018-02-09T04:46:22.947Z,1005.89
2018-02-09T04:47:23.542Z,1005.90
2018-02-09T04:48:24.141Z,1005.86
2018-02-09T04:49:24.734Z,1005.86
2018-02-09T04:50:25.320Z,1005.82
2018-02-09T04:51:25.904Z,1005.84
2018-02-09T04:52:26.505Z,1005.83
2018-02-09T04:53:27.093Z,1005.83
2018-02-09T04:54:27.686Z,1005.79
2018-02-09T04:55:28.283Z,1005.79
2018-02-09T04:56:28.877Z,1005.80
2018-02-09T04:57:29.469Z,1005.80
2018-02-09T04:58:30.066Z,1005.81
2018-02-09T04:59:30.668Z,1005.76
2018-02-09T05:00:31.271Z,1005.76
2018-02-09T05:01:31.851Z,1005.75
2018-02-09T05:02:32.459Z,1005.70
2018-02-09T05:03:33.040Z,1005.67
2018-02-09T05:04:33.635Z,1005.72
2018-02-09T05:05:34.224Z,1005.67
2018-02-09T05:06:34.824Z,1005.64
2018-02-09T05:07:35.421Z,1005.73
2018-02-09T05:08:36.005Z,1005.68
2018-02-09T05:09:36.630Z,1005.64
2018-02-09T05:10:37.224Z,1005.63
2018-02-09T05:11:37.810Z,1005.60
2018-02-09T05:12:38.397Z,1005.63
2018-02-09T05:13:38.988Z,1005.60
2018-02-09T05:14:39.582Z,1005.62
2018-02-09T05:15:40.177Z,1005.62
2018-02-09T05:16:40.769Z,1005.59
2018-02-09T05:17:41.363Z,1005.58
2018-02-09T05:18:41.964Z,1005.58
2018-02-09T05:19:42.561Z,1005.58
2018-02-09T05:20:43.156Z,1005.59
2018-02-09T05:21:43.748Z,1005.59
2018-02-09T05:22:44.346Z,1005.58
2018-02-09T05:23:44.935Z,1005.57
2018-02-09T05:24:45.522Z,1005.54
2018-02-09T05:25:46.123Z,1005.58
2018-02-09T05:26:46.725Z,1005.57
2018-02-09T05:27:47.327Z,1005.56
2018-02-09T05:28:47.918Z,1005.49
2018-02-09T05:29:48.516Z,1005.49
2018-02-09T05:30:49.112Z,1005.47
2018-02-09T05:31:49.701Z,1005.46
2018-02-09T05:32:50.302Z,1005.40
2018-02-09T05:33:50.904Z,1005.40
2018-02-09T05:34:51.486Z,1005.43
2018-02-09T05:35:52.083Z,1005.42
2018-02-09T05:36:52.680Z,1005.38
2018-02-09T05:37:53.273Z,1005.42
2018-02-09T05:38:53.873Z,1005.41
2018-02-09T05:39:54.469Z,1005.37
2018-02-09T05:40:55.057Z,1005.35
2018-02-09T05:41:55.645Z,1005.35
2018-02-09T05:42:56.242Z,1005.38
2018-02-09T05:43:56.845Z,1005.38
2018-02-09T05:44:57.430Z,1005.38
2018-02-09T05:45:58.028Z,1005.36
2018-02-09T05:46:58.614Z,1005.35
2018-02-09T05:47:59.203Z,1005.33
2018-02-09T05:48:59.795Z,1005.36
2018-02-09T05:50:00.394Z,1005.35
2018-02-09T05:51:00.990Z,1005.34
2018-02-09T05:52:01.581Z,1005.31
2018-02-09T05:53:02.173Z,1005.31
2018-02-09T05:54:02.771Z,1005.33
2018-02-09T05:55:03.368Z,1005.33
2018-02-09T05:56:03.963Z,1005.34
2018-02-09T05:57:04.561Z,1005.31
2018-02-09T05:58:05.152Z,1005.28
2018-02-09T05:59:05.737Z,1005.26
2018-02-09T06:00:06.331Z,1005.29
2018-02-09T06:01:06.931Z,1005.28
2018-02-09T06:02:07.520Z,1005.25
2018-02-09T06:03:08.106Z,1005.28
2018-02-09T06:04:08.698Z,1005.28
2018-02-09T06:05:09.295Z,1005.23
2018-02-09T06:06:09.888Z,1005.27
2018-02-09T06:07:10.489Z,1005.22
2018-02-09T06:08:11.071Z,1005.22
2018-02-09T06:09:11.662Z,1005.24
2018-02-09T06:10:12.258Z,1005.20
2018-02-09T06:11:12.847Z,1005.20
2018-02-09T06:12:13.443Z,1005.22
2018-02-09T06:13:14.025Z,1005.22
2018-02-09T06:14:14.617Z,1005.15
2018-02-09T06:15:15.211Z,1005.15
2018-02-09T06:16:15.810Z,1005.15
2018-02-09T06:17:16.461Z,1005.16
2018-02-09T06:18:17.011Z,1005.13
2018-02-09T06:19:17.603Z,1005.11
2018-02-09T06:20:18.203Z,1005.14
2018-02-09T06:21:18.793Z,1005.11
2018-02-09T06:22:19.395Z,1005.11
2018-02-09T06:23:19.990Z,1005.06
2018-02-09T06:24:20.584Z,1005.02
2018-02-09T06:25:21.167Z,1005.06
2018-02-09T06:26:21.759Z,1005.03
2018-02-09T06:27:22.351Z,1005.02
2018-02-09T06:28:22.945Z,1005.00
2018-02-09T06:29:23.541Z,1005.01
2018-02-09T06:30:24.124Z,1005.00
2018-02-09T06:31:24.716Z,1004.97
2018-02-09T06:32:25.316Z,1005.01
2018-02-09T06:33:25.909Z,1004.95
2018-02-09T06:34:26.501Z,1004.96
2018-02-09T06:35:27.091Z,1004.90
2018-02-09T06:36:27.695Z,1004.95
2018-02-09T06:37:28.284Z,1004.93
2018-02-09T06:38:28.881Z,1004.94
2018-02-09T06:39:29.474Z,1004.93
2018-02-09T06:40:30.060Z,1004.95
2018-02-09T06:41:30.664Z,1004.95
2018-02-09T06:42:31.260Z,1004.93
2018-02-09T06:43:31.858Z,1004.94
2018-02-09T06:44:32.458Z,1004.97
2018-02-09T06:45:33.061Z,1004.92
2018-02-09T06:46:33.648Z,1004.91
2018-02-09T06:47:34.250Z,1004.92
2018-02-09T06:48:34.842Z,1004.85
2018-02-09T06:49:35.437Z,1004.88
2018-02-09T06:50:36.037Z,1004.85
2018-02-09T06:51:36.630Z,1004.85
2018-02-09T06:52:37.221Z,1004.89
2018-02-09T06:53:37.830Z,1004.87
2018-02-09T06:54:38.428Z,1004.87
2018-02-09T06:55:39.014Z,1004.88
2018-02-09T06:56:39.614Z,1004.88
2018-02-09T06:57:40.217Z,1004.91
2018-02-09T06:58:40.812Z,1004.88
2018-02-09T06:59:41.409Z,1004.89
2018-02-09T07:00:42.005Z,1004.88
2018-02-09T07:01:42.602Z,1004.86
2018-02-09T07:02:43.201Z,1004.87
2018-02-09T07:03:43.796Z,1004.83
2018-02-09T07:04:44.394Z,1004.81
2018-02-09T07:05:44.980Z,1004.85
2018-02-09T07:06:45.571Z,1004.76
2018-02-09T07:07:46.173Z,1004.78
2018-02-09T07:08:46.790Z,1004.74
2018-02-09T07:09:47.379Z,1004.75
2018-02-09T07:10:47.975Z,1004.76
2018-02-09T07:11:48.575Z,1004.72
2018-02-09T07:12:49.181Z,1004.71
2018-02-09T07:13:49.778Z,1004.67
2018-02-09T07:14:50.377Z,1004.67
2018-02-09T07:15:50.976Z,1004.67
2018-02-09T07:16:51.574Z,1004.66
2018-02-09T07:17:52.175Z,1004.68
2018-02-09T07:18:52.781Z,1004.65
2018-02-09T07:19:53.395Z,1004.65
2018-02-09T07:20:54.002Z,1004.66
2018-02-09T07:21:54.590Z,1004.67
2018-02-09T07:22:55.179Z,1004.67
2018-02-09T07:23:55.776Z,1004.66
2018-02-09T07:24:56.381Z,1004.71
2018-02-09T07:25:56.974Z,1004.70
2018-02-09T07:26:57.573Z,1004.71
2018-02-09T07:27:58.170Z,1004.70
2018-02-09T07:28:58.770Z,1004.70
2018-02-09T07:29:59.372Z,1004.68
2018-02-09T07:30:59.985Z,1004.74
2018-02-09T07:32:00.584Z,1004.74
2018-02-09T07:33:01.184Z,1004.78
2018-02-09T07:34:01.804Z,1004.79
2018-02-09T07:35:02.408Z,1004.83
2018-02-09T07:36:03.006Z,1004.87
2018-02-09T07:37:03.606Z,1004.94
2018-02-09T07:38:04.205Z,1004.92
2018-02-09T07:39:04.801Z,1004.86
2018-02-09T07:40:05.414Z,1004.93
2018-02-09T07:41:06.012Z,1004.80
2018-02-09T07:42:06.613Z,1004.71
2018-02-09T07:43:07.222Z,1004.59
2018-02-09T07:44:07.824Z,1004.60
2018-02-09T07:45:08.424Z,1004.62
2018-02-09T07:46:09.033Z,1004.63
2018-02-09T07:47:09.663Z,1004.63
2018-02-09T07:48:10.245Z,1004.71
2018-02-09T07:49:10.852Z,1004.71
2018-02-09T07:50:11.461Z,1004.70
2018-02-09T07:51:12.064Z,1004.71
2018-02-09T07:52:12.676Z,1004.68
2018-02-09T07:53:13.278Z,1004.76
2018-02-09T07:54:13.879Z,1004.75
2018-02-09T07:55:14.484Z,1004.77
2018-02-09T07:56:15.083Z,1004.74
2018-02-09T07:57:15.687Z,1004.75
2018-02-09T07:58:16.289Z,1004.77
2018-02-09T07:59:16.907Z,1004.79
2018-02-09T08:00:17.558Z,1004.77
2018-02-09T08:01:18.168Z,1004.79
2018-02-09T08:02:18.772Z,1004.77
2018-02-09T08:03:19.382Z,1004.71
2018-02-09T08:04:19.974Z,1004.71
2018-02-09T08:05:20.583Z,1004.67
2018-02-09T08:06:21.191Z,1004.71
2018-02-09T08:07:21.803Z,1004.65
2018-02-09T08:08:22.418Z,1004.66
2018-02-09T08:09:23.015Z,1004.71
2018-02-09T08:10:23.621Z,1004.69
2018-02-09T08:11:24.220Z,1004.74
2018-02-09T08:12:24.825Z,1004.70
2018-02-09T08:13:25.432Z,1004.70
2018-02-09T08:14:26.035Z,1004.70
2018-02-09T08:15:26.643Z,1004.72
2018-02-09T08:16:27.242Z,1004.70
2018-02-09T08:17:27.847Z,1004.72
2018-02-09T08:18:28.461Z,1004.66
2018-02-09T08:19:29.064Z,1004.67
2018-02-09T08:20:29.668Z,1004.65
2018-02-09T08:21:30.281Z,1004.66
2018-02-09T08:22:30.893Z,1004.59
2018-02-09T08:23:31.503Z,1004.58
2018-02-09T08:24:32.097Z,1004.55
2018-02-09T08:25:32.694Z,1004.56
2018-02-09T08:26:33.298Z,1004.58
2018-02-09T08:27:33.910Z,1004.55
2018-02-09T08:28:34.512Z,1004.54
2018-02-09T08:29:35.122Z,1004.58
2018-02-09T08:30:35.726Z,1004.57
2018-02-09T08:31:36.325Z,1004.47
2018-02-09T08:32:36.930Z,1004.50
2018-02-09T08:33:37.529Z,1004.49
2018-02-09T08:34:38.127Z,1004.48
2018-02-09T08:35:38.750Z,1004.47
2018-02-09T08:36:39.372Z,1004.45
2018-02-09T08:37:39.968Z,1004.44
2018-02-09T08:38:40.581Z,1004.42
2018-02-09T08:39:41.192Z,1004.41
2018-02-09T08:40:41.791Z,1004.39
2018-02-09T08:41:42.397Z,1004.39
2018-02-09T08:42:43.011Z,1004.40
2018-02-09T08:43:43.619Z,1004.37
2018-02-09T08:44:44.225Z,1004.33
2018-02-09T08:45:44.821Z,1004.32
2018-02-09T08:46:45.422Z,1004.34
2018-02-09T08:47:46.028Z,1004.31
2018-02-09T08:48:46.637Z,1004.28
2018-02-09T08:49:47.255Z,1004.27
2018-02-09T08:50:47.846Z,1004.27
2018-02-09T08:51:48.518Z,1004.27
2018-02-09T08:52:49.099Z,1004.28
2018-02-09T08:53:49.705Z,1004.23
2018-02-09T08:54:50.310Z,1004.22
2018-02-09T08:55:50.921Z,1004.23
2018-02-09T08:56:51.513Z,1004.20
2018-02-09T08:57:52.120Z,1004.21
2018-02-09T08:58:52.735Z,1004.16
2018-02-09T08:59:53.340Z,1004.17
2018-02-09T09:00:53.948Z,1004.16
2018-02-09T09:01:54.547Z,1004.15
2018-02-09T09:02:55.154Z,1004.16
2018-02-09T09:03:55.750Z,1004.17
2018-02-09T09:04:56.351Z,1004.15
2018-02-09T09:05:56.966Z,1004.12
2018-02-09T09:06:57.584Z,1004.13
2018-02-09T09:07:58.196Z,1004.12
2018-02-09T09:08:58.804Z,1004.13
2018-02-09T09:09:59.414Z,1004.14
2018-02-09T09:11:00.027Z,1004.13
2018-02-09T09:12:00.617Z,1004.12
2018-02-09T09:13:01.221Z,1004.11
2018-02-09T09:14:01.830Z,1004.13
2018-02-09T09:15:02.436Z,1004.11
2018-02-09T09:16:03.038Z,1004.09
2018-02-09T09:17:03.650Z,1004.09
2018-02-09T09:18:04.259Z,1004.10
2018-02-09T09:19:04.865Z,1004.10
2018-02-09T09:20:05.498Z,1004.02
2018-02-09T09:21:06.085Z,1004.04
2018-02-09T09:22:06.708Z,1004.01
2018-02-09T09:23:07.315Z,1004.02
2018-02-09T09:24:07.911Z,1004.03
2018-02-09T09:25:08.512Z,1004.00
2018-02-09T09:26:09.122Z,1004.02
2018-02-09T09:27:09.742Z,1004.03
2018-02-09T09:28:10.372Z,1004.02
2018-02-09T09:29:10.956Z,1004.01
2018-02-09T09:30:11.563Z,1003.97
2018-02-09T09:31:12.175Z,1004.01
2018-02-09T09:32:12.775Z,1003.97
2018-02-09T09:33:13.371Z,1003.96
2018-02-09T09:34:13.981Z,1003.98
2018-02-09T09:35:14.585Z,1003.98
2018-02-09T09:36:15.195Z,1003.93
2018-02-09T09:37:15.816Z,1003.90
2018-02-09T09:38:16.426Z,1003.95
2018-02-09T09:39:17.035Z,1003.93
2018-02-09T09:40:17.651Z,1003.94
2018-02-09T09:41:18.251Z,1003.99
2018-02-09T09:42:18.872Z,1004.01
2018-02-09T09:43:19.491Z,1004.03
2018-02-09T09:44:20.130Z,1003.95
2018-02-09T09:45:20.731Z,1003.94
2018-02-09T09:46:21.335Z,1003.97
2018-02-09T09:47:21.947Z,1003.95
2018-02-09T09:48:22.557Z,1003.97
2018-02-09T09:49:23.172Z,1003.94
2018-02-09T09:50:23.800Z,1003.94
2018-02-09T09:51:24.403Z,1003.91
2018-02-09T09:52:25.027Z,1003.92
2018-02-09T09:53:25.629Z,1003.87
2018-02-09T09:54:26.238Z,1003.87
2018-02-09T09:55:26.850Z,1003.87
2018-02-09T09:56:27.472Z,1003.88
2018-02-09T09:57:28.112Z,1003.91
2018-02-09T09:58:28.694Z,1003.83
2018-02-09T09:59:29.296Z,1003.86
2018-02-09T10:00:29.923Z,1003.85
2018-02-09T10:01:30.529Z,1003.85
2018-02-09T10:02:31.150Z,1003.86
2018-02-09T10:03:31.764Z,1003.88
2018-02-09T10:04:32.373Z,1003.82
2018-02-09T10:05:32.991Z,1003.83
2018-02-09T10:06:33.602Z,1003.86
2018-02-09T10:07:34.283Z,1003.87
2018-02-09T10:08:34.893Z,1003.84
2018-02-09T10:09:35.505Z,1003.82
2018-02-09T10:10:36.130Z,1003.85
2018-02-09T10:11:36.746Z,1003.84
2018-02-09T10:12:37.368Z,1003.86
2018-02-09T10:13:37.971Z,1003.89
2018-02-09T10:14:38.574Z,1003.83
2018-02-09T10:15:39.181Z,1003.80
2018-02-09T10:16:39.794Z,1003.83
2018-02-09T10:17:40.399Z,1003.86
2018-02-09T10:18:41.012Z,1003.77
2018-02-09T10:19:41.620Z,1003.83
2018-02-09T10:20:42.230Z,1003.80
2018-02-09T10:21:42.841Z,1003.89
2018-02-09T10:22:43.447Z,1003.88
2018-02-09T10:23:44.066Z,1003.84
2018-02-09T10:24:44.715Z,1003.85
2018-02-09T10:25:45.328Z,1003.86
2018-02-09T10:26:45.944Z,1003.81
2018-02-09T10:27:46.556Z,1003.83
2018-02-09T10:28:47.166Z,1003.86
2018-02-09T10:29:47.781Z,1003.78
2018-02-09T10:30:48.385Z,1003.83
2018-02-09T10:31:48.996Z,1003.80
2018-02-09T10:32:49.611Z,1003.80
2018-02-09T10:33:50.214Z,1003.81
2018-02-09T10:34:50.829Z,1003.87
2018-02-09T10:35:51.449Z,1003.85
2018-02-09T10:36:52.048Z,1003.83
2018-02-09T10:37:52.670Z,1003.83
2018-02-09T10:38:53.278Z,1003.88
2018-02-09T10:39:53.892Z,1003.84
2018-02-09T10:40:54.494Z,1003.83
2018-02-09T10:41:55.108Z,1003.79
2018-02-09T10:42:55.721Z,1003.83
2018-02-09T10:43:56.337Z,1003.81
2018-02-09T10:44:56.944Z,1003.81
2018-02-09T10:45:57.546Z,1003.84
2018-02-09T10:46:58.164Z,1003.86
2018-02-09T10:47:58.785Z,1003.81
2018-02-09T10:48:59.404Z,1003.79
2018-02-09T10:50:00.020Z,1003.77
2018-02-09T10:51:00.628Z,1003.71
2018-02-09T10:52:01.235Z,1003.74
2018-02-09T10:53:01.856Z,1003.69
2018-02-09T10:54:02.460Z,1003.70
2018-02-09T10:55:03.072Z,1003.70
2018-02-09T10:56:03.684Z,1003.78
2018-02-09T10:57:04.292Z,1003.76
2018-02-09T10:58:04.906Z,1003.70
2018-02-09T10:59:05.518Z,1003.72
2018-02-09T11:00:06.129Z,1003.70
2018-02-09T11:01:06.748Z,1003.69
2018-02-09T11:02:07.360Z,1003.69
2018-02-09T11:03:07.973Z,1003.67
2018-02-09T11:04:08.577Z,1003.65
2018-02-09T11:05:09.179Z,1003.64
2018-02-09T11:06:09.804Z,1003.55
2018-02-09T11:07:10.419Z,1003.59
2018-02-09T11:08:11.034Z,1003.53
2018-02-09T11:09:11.633Z,1003.51
2018-02-09T11:10:12.250Z,1003.49
2018-02-09T11:11:12.870Z,1003.49
2018-02-09T11:12:13.530Z,1003.52
2018-02-09T11:13:14.089Z,1003.51
2018-02-09T11:14:14.701Z,1003.44
2018-02-09T11:15:15.309Z,1003.48
2018-02-09T11:16:15.928Z,1003.48
2018-02-09T11:17:16.549Z,1003.44
2018-02-09T11:18:17.165Z,1003.48
2018-02-09T11:19:17.782Z,1003.44
2018-02-09T11:20:18.387Z,1003.46
2018-02-09T11:21:19.050Z,1003.46
2018-02-09T11:22:19.618Z,1003.41
2018-02-09T11:23:20.246Z,1003.44
2018-02-09T11:24:20.845Z,1003.44
2018-02-09T11:25:21.458Z,1003.44
2018-02-09T11:26:22.069Z,1003.49
2018-02-09T11:27:22.685Z,1003.43
2018-02-09T11:28:23.297Z,1003.51
2018-02-09T11:29:23.911Z,1003.47
2018-02-09T11:30:24.522Z,1003.42
2018-02-09T11:31:25.123Z,1003.43
2018-02-09T11:32:25.733Z,1003.42
2018-02-09T11:33:26.349Z,1003.38
2018-02-09T11:34:26.960Z,1003.40
2018-02-09T11:35:27.573Z,1003.43
2018-02-09T11:36:28.184Z,1003.39
2018-02-09T11:37:28.787Z,1003.32
2018-02-09T11:38:29.402Z,1003.33
2018-02-09T11:39:30.021Z,1003.31
2018-02-09T11:40:30.626Z,1003.29
2018-02-09T11:41:31.227Z,1003.31
2018-02-09T11:42:31.840Z,1003.31
2018-02-09T11:43:32.438Z,1003.33
2018-02-09T11:44:33.052Z,1003.34
2018-02-09T11:45:33.674Z,1003.34
2018-02-09T11:46:34.291Z,1003.30
2018-02-09T11:47:34.903Z,1003.26
2018-02-09T11:48:35.520Z,1003.25
2018-02-09T11:49:36.143Z,1003.28
2018-02-09T11:50:36.757Z,1003.29
2018-02-09T11:51:37.360Z,1003.29
2018-02-09T11:52:37.970Z,1003.24
2018-02-09T11:53:38.616Z,1003.27
2018-02-09T11:54:39.212Z,1003.30
2018-02-09T11:55:39.816Z,1003.28
2018-02-09T11:56:40.436Z,1003.26
2018-02-09T11:57:41.049Z,1003.30
2018-02-09T11:58:41.668Z,1003.29
2018-02-09T11:59:42.286Z,1003.27
2018-02-09T12:00:42.906Z,1003.24
2018-02-09T12:01:43.525Z,1003.22
2018-02-09T12:02:44.138Z,1003.25
2018-02-09T12:03:44.746Z,1003.22
2018-02-09T12:04:45.348Z,1003.17
2018-02-09T12:05:45.963Z,1003.19
2018-02-09T12:06:46.579Z,1003.18
2018-02-09T12:07:47.201Z,1003.15
2018-02-09T12:08:47.812Z,1003.18
2018-02-09T12:09:48.436Z,1003.20
2018-02-09T12:10:49.062Z,1003.24
2018-02-09T12:11:49.683Z,1003.27
2018-02-09T12:12:50.301Z,1003.29
2018-02-09T12:13:50.933Z,1003.21